Time;durP1;ratioP1;P1;durP2;ratioP2;P2;SDS_P1;SDS_P2;PMS_P1;PMS_P2;Temp;Humidity;BMP_temperature;BMP_pressure;BME280_temperature;BME280_humidity;BME280_pressure;Samples;Min_cycle;Max_cycle;Signal;HPM_P1;HPM_P2
2024/02/04 00:00:36;;;;;;;;;;;;;;;;;;5053521;28;19932;-88
2024/02/04 00:03:03;;;;;;;;;;;;;;;;;;5052465;28;19952;-86
2024/02/04 00:05:30;;;;;;;;;;;;;;;;;;5054052;28;19936;-88
2024/02/04 00:07:57;;;;;;;;;;;;;;;;;;5053569;28;19974;-90
2024/02/04 00:10:26;;;;;;;;;;;;;;;;;;5053563;28;20489;-88
2024/02/04 00:12:53;;;;;;;;;;;;;;;;;;5054833;28;20393;-88
2024/02/04 00:15:20;;;;;;;;;;;;;;;;;;5057319;28;19929;-88
2024/02/04 00:17:47;;;;;;;;;;;;;;;;;;5056377;28;19951;-90
2024/02/04 00:20:14;;;;;;;;;;;;;;;;;;5056146;28;19937;-89
2024/02/04 00:22:41;;;;;;;;;;;;;;;;;;5054814;28;19933;-88
2024/02/04 00:25:11;;;;;;;;;;;;;;;;;;5056142;28;20034;-90
2024/02/04 00:27:38;;;;;;;;;;;;;;;;;;5060324;28;19928;-90
2024/02/04 00:30:05;;;;;;;;;;;;;;;;;;5057447;28;19933;-91
2024/02/04 00:32:32;;;;;;;;;;;;;;;;;;5043736;28;19929;-90
2024/02/04 00:34:59;;;;;;;;;;;;;;;;;;5057436;28;20449;-90
2024/02/04 00:37:26;;;;;;;;;;;;;;;;;;5057569;28;19975;-88
2024/02/04 00:39:53;;;;;;;;;;;;;;;;;;5057134;28;20015;-91
2024/02/04 00:42:20;;;;;;;;;;;;;;;;;;5055277;28;19928;-90
2024/02/04 00:44:47;;;;;;;;;;;;;;;;;;5051573;28;20285;-90
2024/02/04 00:47:14;;;;;;;;;;;;;;;;;;5049777;28;19925;-91
2024/02/04 00:49:41;;;;;;;;;;;;;;;;;;5055700;28;19928;-88
2024/02/04 00:52:08;;;;;;;;;;;;;;;;;;5053506;28;19983;-88
2024/02/04 00:54:35;;;;;;;;;;;;;;;;;;5054380;28;20417;-89
2024/02/04 00:57:02;;;;;;;;;;;;;;;;;;5052500;28;19971;-90
2024/02/04 00:59:30;;;;;;;;;;;;;;;;;;5050148;28;19972;-85
2024/02/04 01:01:58;;;;;;;;;;;;;;;;;;5053383;28;19935;-88
2024/02/04 01:04:25;;;;;;;;;;;;;;;;;;5050923;28;19933;-89
2024/02/04 01:06:52;;;;;;;;;;;;;;;;;;5055365;28;19998;-86
2024/02/04 01:09:19;;;;;;;;;;;;;;;;;;5055165;28;20356;-87
2024/02/04 01:11:46;;;;;;;;;;;;;;;;;;5055321;28;20195;-88
2024/02/04 01:14:13;;;;;;;;;;;;;;;;;;5051266;28;19962;-89
2024/02/04 01:16:40;;;;;;;;;;;;;;;;;;5058255;28;19936;-87
2024/02/04 01:19:07;;;;;;;;;;;;;;;;;;5061729;28;19928;-88
2024/02/04 01:21:34;;;;;;;;;;;;;;;;;;5058600;28;19929;-86
2024/02/04 01:24:02;;;;;;;;;;;;;;;;;;5053951;28;19929;-89
2024/02/04 01:26:29;;;;;;;;;;;;;;;;;;5054650;28;20285;-88
2024/02/04 01:28:56;;;;;;;;;;;;;;;;;;5054994;28;19982;-89
2024/02/04 01:31:23;;;;;;;;;;;;;;;;;;5052193;28;19959;-83
2024/02/04 01:33:50;;;;;;;;;;;;;;;;;;5051705;28;20006;-88
2024/02/04 01:36:17;;;;;;;;;;;;;;;;;;5064468;28;19928;-88
2024/02/04 01:38:44;;;;;;;;;;;;;;;;;;5059531;28;19987;-88
2024/02/04 01:41:11;;;;;;;;;;;;;;;;;;5055091;28;19936;-88
2024/02/04 01:43:38;;;;;;;;;;;;;;;;;;5053963;28;19928;-87
2024/02/04 01:46:05;;;;;;;;;;;;;;;;;;5054393;28;19936;-87
2024/02/04 01:48:32;;;;;;;;;;;;;;;;;;5053276;28;19947;-86
2024/02/04 01:50:59;;;;;;;;;;;;;;;;;;5051480;28;19929;-87
2024/02/04 01:53:26;;;;;;;;;;;;;;;;;;5054780;28;20023;-87
2024/02/04 01:55:54;;;;;;;;;;;;;;;;;;5041646;28;19944;-88
2024/02/04 01:58:21;;;;;;;;;;;;;;;;;;5049904;28;19928;-88
2024/02/04 02:00:48;;;;;;;;;;;;;;;;;;5052089;28;19929;-87
2024/02/04 02:03:15;;;;;;;;;;;;;;;;;;5054153;28;19932;-90
2024/02/04 02:05:42;;;;;;;;;;;;;;;;;;5050348;28;19983;-87
2024/02/04 02:08:09;;;;;;;;;;;;;;;;;;5059221;28;19929;-87
2024/02/04 02:10:36;;;;;;;;;;;;;;;;;;5066627;28;20003;-86
2024/02/04 02:13:03;;;;;;;;;;;;;;;;;;5051759;28;20650;-87
2024/02/04 02:15:30;;;;;;;;;;;;;;;;;;5046617;28;19939;-86
2024/02/04 02:17:57;;;;;;;;;;;;;;;;;;5050980;28;19928;-84
2024/02/04 02:20:24;;;;;;;;;;;;;;;;;;5044307;28;19929;-85
2024/02/04 02:22:51;;;;;;;;;;;;;;;;;;5053753;28;19991;-85
2024/02/04 02:25:18;;;;;;;;;;;;;;;;;;5054275;28;20384;-88
2024/02/04 02:27:44;;;;;;;;;;;;;;;;;;5052314;28;19929;-85
2024/02/04 02:30:11;;;;;;;;;;;;;;;;;;5053815;28;20011;-86
2024/02/04 02:32:39;;;;;;;;;;;;;;;;;;5050701;28;19974;-87
2024/02/04 02:35:06;;;;;;;;;;;;;;;;;;5046672;28;19940;-86
2024/02/04 02:37:33;;;;;;;;;;;;;;;;;;5047417;28;19928;-85
2024/02/04 02:40:00;;;;;;;;;;;;;;;;;;5053193;28;19932;-86
2024/02/04 02:42:27;;;;;;;;;;;;;;;;;;5051698;28;19929;-86
2024/02/04 02:44:54;;;;;;;;;;;;;;;;;;5066626;28;19967;-86
2024/02/04 02:47:21;;;;;;;;;;;;;;;;;;5060736;28;19933;-87
2024/02/04 02:49:48;;;;;;;;;;;;;;;;;;5046783;28;20024;-88
2024/02/04 02:52:15;;;;;;;;;;;;;;;;;;5052581;28;20072;-85
2024/02/04 02:54:42;;;;;;;;;;;;;;;;;;5032953;28;20016;-85
2024/02/04 02:57:09;;;;;;;;;;;;;;;;;;5045185;28;19951;-85
2024/02/04 02:59:36;;;;;;;;;;;;;;;;;;5050940;28;19994;-86
2024/02/04 03:02:03;;;;;;;;;;;;;;;;;;5046137;28;19959;-86
2024/02/04 03:04:30;;;;;;;;;;;;;;;;;;5041721;28;19974;-85
2024/02/04 03:06:57;;;;;;;;;;;;;;;;;;5051889;28;19935;-85
2024/02/04 03:09:24;;;;;;;;;;;;;;;;;;5052206;28;20019;-86
2024/02/04 03:11:51;;;;;;;;;;;;;;;;;;5052337;28;19929;-85
2024/02/04 03:14:18;;;;;;;;;;;;;;;;;;5053204;28;19933;-87
2024/02/04 03:16:45;;;;;;;;;;;;;;;;;;5051173;28;19929;-85
2024/02/04 03:19:12;;;;;;;;;;;;;;;;;;5052812;28;19936;-84
2024/02/04 03:21:39;;;;;;;;;;;;;;;;;;5047591;28;19951;-85
2024/02/04 03:24:06;;;;;;;;;;;;;;;;;;5053086;28;19937;-86
2024/02/04 03:26:33;;;;;;;;;;;;;;;;;;5051474;28;19928;-85
2024/02/04 03:29:00;;;;;;;;;;;;;;;;;;5053193;28;19989;-86
2024/02/04 03:31:27;;;;;;;;;;;;;;;;;;5052961;28;19929;-87
2024/02/04 03:33:54;;;;;;;;;;;;;;;;;;5052019;28;19929;-89
2024/02/04 03:36:22;;;;;;;;;;;;;;;;;;5050808;28;19932;-86
2024/02/04 03:38:49;;;;;;;;;;;;;;;;;;5052785;28;19929;-87
2024/02/04 03:41:16;;;;;;;;;;;;;;;;;;5053410;28;19951;-87
2024/02/04 03:43:43;;;;;;;;;;;;;;;;;;5053050;28;19968;-88
2024/02/04 03:46:10;;;;;;;;;;;;;;;;;;5052837;28;19998;-86
2024/02/04 03:48:37;;;;;;;;;;;;;;;;;;5050102;28;19933;-86
2024/02/04 03:51:04;;;;;;;;;;;;;;;;;;5050378;28;19980;-86
2024/02/04 03:53:31;;;;;;;;;;;;;;;;;;5044574;28;19936;-86
2024/02/04 03:55:58;;;;;;;;;;;;;;;;;;5045317;28;19936;-85
2024/02/04 03:58:29;;;;;;;;;;;;;;;;;;5048788;28;20052;-85
2024/02/04 04:00:56;;;;;;;;;;;;;;;;;;5049445;28;19924;-85
2024/02/04 04:03:23;;;;;;;;;;;;;;;;;;5050144;28;20004;-83
2024/02/04 04:05:52;;;;;;;;;;;;;;;;;;5046200;28;20708;-83
2024/02/04 04:08:19;;;;;;;;;;;;;;;;;;5049962;28;19972;-85
2024/02/04 04:10:46;;;;;;;;;;;;;;;;;;5071523;28;19932;-84
2024/02/04 04:13:13;;;;;;;;;;;;;;;;;;5062894;28;19928;-85
2024/02/04 04:15:42;;;;;;;;;;;;;;;;;;5048718;28;20067;-83
2024/02/04 04:18:10;;;;;;;;;;;;;;;;;;5050360;28;19929;-85
2024/02/04 04:20:37;;;;;;;;;;;;;;;;;;5050737;28;19982;-84
2024/02/04 04:23:04;;;;;;;;;;;;;;;;;;5051008;28;19929;-85
2024/02/04 04:25:32;;;;;;;;;;;;;;;;;;5053311;28;19973;-86
2024/02/04 04:27:59;;;;;;;;;;;;;;;;;;5056624;28;19936;-85
2024/02/04 04:30:26;;;;;;;;;;;;;;;;;;5047367;28;19929;-86
2024/02/04 04:32:53;;;;;;;;;;;;;;;;;;5050350;28;19983;-86
2024/02/04 04:35:20;;;;;;;;;;;;;;;;;;5058324;28;19929;-85
2024/02/04 04:37:47;;;;;;;;;;;;;;;;;;5057115;28;20385;-89
2024/02/04 04:40:14;;;;;;;;;;;;;;;;;;5052369;28;20036;-82
2024/02/04 04:42:41;;;;;;;;;;;;;;;;;;5051269;28;20006;-86
2024/02/04 04:45:08;;;;;;;;;;;;;;;;;;5050758;28;19940;-85
2024/02/04 04:47:35;;;;;;;;;;;;;;;;;;5050564;28;19929;-86
2024/02/04 04:50:03;;;;;;;;;;;;;;;;;;5050355;28;19950;-86
2024/02/04 04:52:30;;;;;;;;;;;;;;;;;;5051708;28;19947;-86
2024/02/04 04:54:57;;;;;;;;;;;;;;;;;;5050798;28;19972;-86
2024/02/04 04:57:24;;;;;;;;;;;;;;;;;;5049031;28;19933;-86
2024/02/04 04:59:51;;;;;;;;;;;;;;;;;;5056552;28;19928;-85
2024/02/04 05:02:18;;;;;;;;;;;;;;;;;;5057384;28;19936;-86
2024/02/04 05:04:45;;;;;;;;;;;;;;;;;;5053894;28;19929;-86
2024/02/04 05:07:12;;;;;;;;;;;;;;;;;;5055456;28;19944;-86
2024/02/04 05:09:39;;;;;;;;;;;;;;;;;;5052862;28;20018;-86
2024/02/04 05:12:06;;;;;;;;;;;;;;;;;;5056906;28;20334;-86
2024/02/04 05:14:33;;;;;;;;;;;;;;;;;;5053898;28;19968;-86
2024/02/04 05:17:00;;;;;;;;;;;;;;;;;;5055691;28;19928;-86
2024/02/04 05:19:27;;;;;;;;;;;;;;;;;;5053914;28;20050;-85
2024/02/04 05:21:54;;;;;;;;;;;;;;;;;;5053600;28;20456;-85
2024/02/04 05:24:21;;;;;;;;;;;;;;;;;;5053536;28;20090;-84
2024/02/04 05:26:48;;;;;;;;;;;;;;;;;;5052796;28;19976;-86
2024/02/04 05:29:15;;;;;;;;;;;;;;;;;;5052107;28;19933;-86
2024/02/04 05:31:43;;;;;;;;;;;;;;;;;;5052863;28;20339;-84
2024/02/04 05:34:10;;;;;;;;;;;;;;;;;;5054052;28;19968;-80
2024/02/04 05:36:37;;;;;;;;;;;;;;;;;;5052983;28;19928;-86
2024/02/04 05:39:04;;;;;;;;;;;;;;;;;;5053579;28;20246;-85
2024/02/04 05:41:31;;;;;;;;;;;;;;;;;;5052190;28;19954;-84
2024/02/04 05:43:58;;;;;;;;;;;;;;;;;;5050469;28;19975;-81
2024/02/04 05:46:27;;;;;;;;;;;;;;;;;;5054862;28;19971;-89
2024/02/04 05:48:54;;;;;;;;;;;;;;;;;;5058291;28;19928;-85
2024/02/04 05:51:21;;;;;;;;;;;;;;;;;;5053431;28;20380;-83
2024/02/04 05:53:48;;;;;;;;;;;;;;;;;;5038716;28;20034;-89
2024/02/04 05:56:15;;;;;;;;;;;;;;;;;;5048874;28;20400;-87
2024/02/04 05:58:42;;;;;;;;;;;;;;;;;;5042001;28;19936;-86
2024/02/04 06:01:09;;;;;;;;;;;;;;;;;;5043557;28;19935;-89
2024/02/04 06:03:36;;;;;;;;;;;;;;;;;;5042494;28;19979;-89
2024/02/04 06:06:03;;;;;;;;;;;;;;;;;;5050962;28;19998;-88
2024/02/04 06:08:30;;;;;;;;;;;;;;;;;;5046513;28;19929;-87
2024/02/04 06:10:57;;;;;;;;;;;;;;;;;;5044447;28;19928;-88
2024/02/04 06:13:24;;;;;;;;;;;;;;;;;;5052833;28;19928;-88
2024/02/04 06:15:52;;;;;;;;;;;;;;;;;;5052409;28;19928;-88
2024/02/04 06:18:19;;;;;;;;;;;;;;;;;;5044144;28;19929;-77
2024/02/04 06:20:46;;;;;;;;;;;;;;;;;;5049214;28;20006;-78
2024/02/04 06:23:13;;;;;;;;;;;;;;;;;;5045306;28;19993;-77
2024/02/04 06:25:40;;;;;;;;;;;;;;;;;;5051218;28;19933;-77
2024/02/04 06:28:08;;;;;;;;;;;;;;;;;;5047598;28;20384;-80
2024/02/04 06:30:35;;;;;;;;;;;;;;;;;;5042840;28;19935;-79
2024/02/04 06:33:03;;;;;;;;;;;;;;;;;;5046974;28;19929;-80
2024/02/04 06:35:30;;;;;;;;;;;;;;;;;;5043838;28;20403;-80
2024/02/04 06:37:57;;;;;;;;;;;;;;;;;;5046491;28;20471;-80
2024/02/04 06:40:24;;;;;;;;;;;;;;;;;;5046926;28;19960;-79
2024/02/04 06:42:51;;;;;;;;;;;;;;;;;;5039902;28;19952;-79
2024/02/04 06:45:18;;;;;;;;;;;;;;;;;;5041681;28;19929;-77
2024/02/04 06:47:45;;;;;;;;;;;;;;;;;;5047466;28;20089;-78
2024/02/04 06:50:13;;;;;;;;;;;;;;;;;;5043592;28;19976;-79
2024/02/04 06:52:40;;;;;;;;;;;;;;;;;;5038981;28;19975;-79
2024/02/04 06:55:08;;;;;;;;;;;;;;;;;;5046233;28;19933;-79
2024/02/04 06:57:35;;;;;;;;;;;;;;;;;;5043710;28;19929;-78
2024/02/04 07:00:05;;;;;;;;;;;;;;;;;;5044664;28;19932;-80
2024/02/04 07:02:32;;;;;;;;;;;;;;;;;;5045945;28;20043;-77
2024/02/04 07:04:59;;;;;;;;;;;;;;;;;;5049853;28;19933;-79
2024/02/04 07:07:26;;;;;;;;;;;;;;;;;;5051962;28;19983;-81
2024/02/04 07:09:53;;;;;;;;;;;;;;;;;;5050666;28;19951;-85
2024/02/04 07:12:20;;;;;;;;;;;;;;;;;;5047803;28;20392;-87
2024/02/04 07:14:47;;;;;;;;;;;;;;;;;;5039163;28;20024;-88
2024/02/04 07:17:14;;;;;;;;;;;;;;;;;;5061473;28;20462;-87
2024/02/04 07:19:41;;;;;;;;;;;;;;;;;;5033650;28;19972;-86
2024/02/04 07:22:09;;;;;;;;;;;;;;;;;;5050451;28;19936;-82
2024/02/04 07:24:36;;;;;;;;;;;;;;;;;;5050773;28;20305;-88
2024/02/04 07:27:03;;;;;;;;;;;;;;;;;;5051295;28;20340;-87
2024/02/04 07:29:31;;;;;;;;;;;;;;;;;;5049741;28;19929;-86
2024/02/04 07:31:58;;;;;;;;;;;;;;;;;;5050890;28;19943;-88
2024/02/04 07:34:25;;;;;;;;;;;;;;;;;;5067674;28;19990;-84
2024/02/04 07:36:53;;;;;;;;;;;;;;;;;;5059312;28;19929;-85
2024/02/04 07:39:20;;;;;;;;;;;;;;;;;;5050754;28;20023;-86
2024/02/04 07:41:47;;;;;;;;;;;;;;;;;;5050536;28;19971;-88
2024/02/04 07:44:14;;;;;;;;;;;;;;;;;;5044839;28;19993;-86
2024/02/04 07:46:41;;;;;;;;;;;;;;;;;;5040454;28;19928;-87
2024/02/04 07:49:08;;;;;;;;;;;;;;;;;;5049858;28;20403;-87
2024/02/04 07:51:36;;;;;;;;;;;;;;;;;;5050410;28;20034;-86
2024/02/04 07:54:03;;;;;;;;;;;;;;;;;;5050033;28;20586;-86
2024/02/04 07:56:30;;;;;;;;;;;;;;;;;;5050255;28;19937;-85
2024/02/04 07:58:57;;;;;;;;;;;;;;;;;;5049719;28;19975;-85
2024/02/04 08:01:24;;;;;;;;;;;;;;;;;;5044952;28;20405;-87
2024/02/04 08:03:51;;;;;;;;;;;;;;;;;;5048284;28;19964;-87
2024/02/04 08:06:18;;;;;;;;;;;;;;;;;;5048591;28;19948;-85
2024/02/04 08:08:47;;;;;;;;;;;;;;;;;;5035141;28;19990;-86
2024/02/04 08:11:14;;;;;;;;;;;;;;;;;;5049267;28;19929;-87
2024/02/04 08:13:41;;;;;;;;;;;;;;;;;;5047513;28;19936;-86
2024/02/04 08:16:08;;;;;;;;;;;;;;;;;;5045350;28;19963;-84
2024/02/04 08:18:35;;;;;;;;;;;;;;;;;;5048950;28;19928;-86
2024/02/04 08:21:03;;;;;;;;;;;;;;;;;;5048544;28;19990;-87
2024/02/04 08:23:30;;;;;;;;;;;;;;;;;;5050327;28;19929;-88
2024/02/04 08:25:57;;;;;;;;;;;;;;;;;;5049196;28;19932;-86
2024/02/04 08:28:24;;;;;;;;;;;;;;;;;;5048392;28;19933;-86
2024/02/04 08:30:51;;;;;;;;;;;;;;;;;;5041862;28;20490;-87
2024/02/04 08:33:18;;;;;;;;;;;;;;;;;;5047062;28;19929;-87
2024/02/04 08:35:46;;;;;;;;;;;;;;;;;;5052303;28;19935;-87
2024/02/04 08:38:13;;;;;;;;;;;;;;;;;;5052689;28;19974;-88
2024/02/04 08:40:40;;;;;;;;;;;;;;;;;;5055041;28;20015;-86
2024/02/04 08:43:07;;;;;;;;;;;;;;;;;;5050465;28;19929;-85
2024/02/04 08:45:34;;;;;;;;;;;;;;;;;;5048035;28;19987;-85
2024/02/04 08:48:01;;;;;;;;;;;;;;;;;;5052225;28;20374;-85
2024/02/04 08:50:28;;;;;;;;;;;;;;;;;;5050573;28;19932;-84
2024/02/04 08:52:55;;;;;;;;;;;;;;;;;;5052752;28;20050;-84
2024/02/04 08:55:22;;;;;;;;;;;;;;;;;;5051548;28;19992;-85
2024/02/04 08:57:50;;;;;;;;;;;;;;;;;;4973105;28;1951609;-86
2024/02/04 09:00:17;;;;;;;;;;;;;;;;;;5052257;28;19955;-86
2024/02/04 09:02:44;;;;;;;;;;;;;;;;;;5053595;28;19929;-85
2024/02/04 09:05:11;;;;;;;;;;;;;;;;;;5051727;28;20414;-84
2024/02/04 09:07:38;;;;;;;;;;;;;;;;;;5050824;28;20342;-84
2024/02/04 09:10:07;;;;;;;;;;;;;;;;;;5048812;28;20012;-83
2024/02/04 09:12:34;;;;;;;;;;;;;;;;;;5045466;28;20395;-83
2024/02/04 09:15:01;;;;;;;;;;;;;;;;;;5052582;28;19976;-83
2024/02/04 09:17:28;;;;;;;;;;;;;;;;;;5045250;28;19929;-86
2024/02/04 09:19:55;;;;;;;;;;;;;;;;;;5049561;28;20296;-87
2024/02/04 09:22:22;;;;;;;;;;;;;;;;;;5048074;28;20051;-86
2024/02/04 09:24:49;;;;;;;;;;;;;;;;;;5047874;28;20082;-84
2024/02/04 09:27:16;;;;;;;;;;;;;;;;;;5048802;28;19958;-88
2024/02/04 09:29:43;;;;;;;;;;;;;;;;;;5048571;28;20315;-77
2024/02/04 09:32:10;;;;;;;;;;;;;;;;;;5044424;28;19933;-79
2024/02/04 09:34:37;;;;;;;;;;;;;;;;;;5043447;28;20011;-76
2024/02/04 09:37:04;;;;;;;;;;;;;;;;;;5049428;28;19928;-78
2024/02/04 09:39:31;;;;;;;;;;;;;;;;;;5042816;28;20228;-76
2024/02/04 09:41:59;;;;;;;;;;;;;;;;;;5056793;28;19937;-76
2024/02/04 09:44:26;;;;;;;;;;;;;;;;;;5043506;28;20354;-78
2024/02/04 09:46:53;;;;;;;;;;;;;;;;;;5047901;28;19928;-77
2024/02/04 09:49:20;;;;;;;;;;;;;;;;;;5045207;28;19960;-77
2024/02/04 09:51:47;;;;;;;;;;;;;;;;;;5047674;28;19928;-76
2024/02/04 09:54:14;;;;;;;;;;;;;;;;;;5046805;28;19976;-77
2024/02/04 09:56:41;;;;;;;;;;;;;;;;;;5046695;28;19990;-78
2024/02/04 09:59:08;;;;;;;;;;;;;;;;;;5047428;28;20025;-76
2024/02/04 10:01:35;;;;;;;;;;;;;;;;;;5047249;28;19994;-77
2024/02/04 10:04:02;;;;;;;;;;;;;;;;;;5034051;28;19976;-77
2024/02/04 10:06:29;;;;;;;;;;;;;;;;;;5039598;28;19929;-77
2024/02/04 10:08:56;;;;;;;;;;;;;;;;;;5047428;28;20059;-76
2024/02/04 10:11:24;;;;;;;;;;;;;;;;;;5048378;28;19968;-77
2024/02/04 10:13:51;;;;;;;;;;;;;;;;;;5044155;28;19929;-76
2024/02/04 10:16:18;;;;;;;;;;;;;;;;;;5040504;28;20384;-78
2024/02/04 10:18:45;;;;;;;;;;;;;;;;;;5046421;28;20002;-75
2024/02/04 10:21:12;;;;;;;;;;;;;;;;;;5041914;28;19976;-76
2024/02/04 10:23:39;;;;;;;;;;;;;;;;;;5047091;28;19971;-77
2024/02/04 10:26:06;;;;;;;;;;;;;;;;;;5042190;28;19972;-76
2024/02/04 10:28:33;;;;;;;;;;;;;;;;;;5046107;28;20346;-76
2024/02/04 10:31:00;;;;;;;;;;;;;;;;;;5044983;28;19976;-75
2024/02/04 10:33:27;;;;;;;;;;;;;;;;;;5046079;28;20407;-76
2024/02/04 10:35:54;;;;;;;;;;;;;;;;;;5046244;28;20376;-76
2024/02/04 10:38:21;;;;;;;;;;;;;;;;;;5046376;28;19980;-75
2024/02/04 10:40:48;;;;;;;;;;;;;;;;;;5043498;28;20007;-76
2024/02/04 10:43:15;;;;;;;;;;;;;;;;;;5046824;28;20358;-76
2024/02/04 10:45:42;;;;;;;;;;;;;;;;;;5047856;28;19988;-75
2024/02/04 10:48:09;;;;;;;;;;;;;;;;;;5047827;28;20071;-76
2024/02/04 10:50:37;;;;;;;;;;;;;;;;;;5047270;28;20506;-76
2024/02/04 10:53:04;;;;;;;;;;;;;;;;;;5046290;28;19935;-76
2024/02/04 10:55:31;;;;;;;;;;;;;;;;;;5047884;28;20295;-78
2024/02/04 10:57:58;;;;;;;;;;;;;;;;;;5058652;28;20409;-76
2024/02/04 11:00:25;;;;;;;;;;;;;;;;;;5047754;28;19991;-78
2024/02/04 11:02:53;;;;;;;;;;;;;;;;;;5047674;28;19975;-77
2024/02/04 11:05:20;;;;;;;;;;;;;;;;;;5034956;28;19967;-75
2024/02/04 11:07:47;;;;;;;;;;;;;;;;;;5046584;28;19968;-75
2024/02/04 11:10:14;;;;;;;;;;;;;;;;;;5046976;28;19959;-75
2024/02/04 11:12:41;;;;;;;;;;;;;;;;;;5044349;28;19955;-75
2024/02/04 11:15:09;;;;;;;;;;;;;;;;;;5048077;28;20010;-75
2024/02/04 11:17:37;;;;;;;;;;;;;;;;;;5045766;28;19991;-76
2024/02/04 11:20:05;;;;;;;;;;;;;;;;;;5043286;28;19982;-76
2024/02/04 11:22:32;;;;;;;;;;;;;;;;;;5031410;28;19962;-76
2024/02/04 11:24:59;;;;;;;;;;;;;;;;;;5042105;28;19928;-76
2024/02/04 11:27:26;;;;;;;;;;;;;;;;;;5041641;28;19928;-76
2024/02/04 11:29:53;;;;;;;;;;;;;;;;;;5043801;28;20000;-76
2024/02/04 11:32:20;;;;;;;;;;;;;;;;;;5046326;28;20031;-75
2024/02/04 11:34:47;;;;;;;;;;;;;;;;;;5045132;28;20429;-76
2024/02/04 11:37:14;;;;;;;;;;;;;;;;;;5040688;28;20368;-76
2024/02/04 11:39:41;;;;;;;;;;;;;;;;;;5044358;28;19936;-76
2024/02/04 11:42:08;;;;;;;;;;;;;;;;;;5043064;28;19929;-76
2024/02/04 11:44:35;;;;;;;;;;;;;;;;;;5045664;28;19929;-80
2024/02/04 11:47:02;;;;;;;;;;;;;;;;;;5042067;28;19936;-86
2024/02/04 11:49:29;;;;;;;;;;;;;;;;;;5038763;28;20059;-84
2024/02/04 11:51:56;;;;;;;;;;;;;;;;;;5045803;28;20006;-82
2024/02/04 11:54:23;;;;;;;;;;;;;;;;;;5043033;28;20002;-86
2024/02/04 11:56:52;;;;;;;;;;;;;;;;;;5046668;28;20026;-85
2024/02/04 11:59:20;;;;;;;;;;;;;;;;;;5044834;28;20018;-86
2024/02/04 12:01:47;;;;;;;;;;;;;;;;;;5044549;28;20341;-87
2024/02/04 12:04:14;;;;;;;;;;;;;;;;;;5054041;28;20340;-84
2024/02/04 12:06:42;;;;;;;;;;;;;;;;;;5048585;28;19928;-86
2024/02/04 12:09:09;;;;;;;;;;;;;;;;;;5046189;28;19929;-87
2024/02/04 12:11:36;;;;;;;;;;;;;;;;;;5050120;28;19933;-87
2024/02/04 12:14:03;;;;;;;;;;;;;;;;;;5049026;28;20434;-84
2024/02/04 12:16:32;;;;;;;;;;;;;;;;;;5044708;28;19976;-89
2024/02/04 12:18:59;;;;;;;;;;;;;;;;;;5048811;28;19928;-88
2024/02/04 12:21:26;;;;;;;;;;;;;;;;;;5051554;28;19929;-87
2024/02/04 12:23:53;;;;;;;;;;;;;;;;;;5050072;28;20045;-87
2024/02/04 12:26:20;;;;;;;;;;;;;;;;;;5044082;28;19980;-76
2024/02/04 12:28:47;;;;;;;;;;;;;;;;;;5048241;28;20021;-76
2024/02/04 12:31:14;;;;;;;;;;;;;;;;;;5044258;28;20396;-76
2024/02/04 12:33:41;;;;;;;;;;;;;;;;;;5048907;28;19968;-76
2024/02/04 12:36:08;;;;;;;;;;;;;;;;;;5051827;28;20026;-79
2024/02/04 12:38:36;;;;;;;;;;;;;;;;;;5046477;28;20303;-81
2024/02/04 12:41:03;;;;;;;;;;;;;;;;;;5047219;28;20047;-77
2024/02/04 12:43:30;;;;;;;;;;;;;;;;;;5048996;28;20035;-77
2024/02/04 12:45:59;;;;;;;;;;;;;;;;;;5049079;28;19933;-78
2024/02/04 12:48:27;;;;;;;;;;;;;;;;;;5044578;28;19939;-86
2024/02/04 12:50:54;;;;;;;;;;;;;;;;;;5046955;28;20531;-84
2024/02/04 12:53:21;;;;;;;;;;;;;;;;;;5044970;28;20195;-83
2024/02/04 12:55:48;;;;;;;;;;;;;;;;;;5043930;28;20508;-82
2024/02/04 12:58:17;;;;;;;;;;;;;;;;;;5044243;28;19937;-83
2024/02/04 13:00:44;;;;;;;;;;;;;;;;;;5046854;28;20434;-85
2024/02/04 13:03:11;;;;;;;;;;;;;;;;;;5044148;28;19933;-86
2024/02/04 13:05:38;;;;;;;;;;;;;;;;;;5041880;28;19933;-82
2024/02/04 13:08:05;;;;;;;;;;;;;;;;;;5047309;28;19964;-86
2024/02/04 13:10:33;;;;;;;;;;;;;;;;;;5046879;28;19928;-83
2024/02/04 13:13:01;;;;;;;;;;;;;;;;;;5048122;28;19991;-84
2024/02/04 13:15:28;;;;;;;;;;;;;;;;;;5052371;28;20003;-84
2024/02/04 13:17:55;;;;;;;;;;;;;;;;;;5052696;28;19991;-81
2024/02/04 13:20:22;;;;;;;;;;;;;;;;;;5050592;28;19925;-84
2024/02/04 13:22:49;;;;;;;;;;;;;;;;;;5050201;28;19975;-86
2024/02/04 13:25:16;;;;;;;;;;;;;;;;;;5048767;28;19998;-85
2024/02/04 13:27:43;;;;;;;;;;;;;;;;;;5051594;28;19924;-85
2024/02/04 13:30:12;;;;;;;;;;;;;;;;;;5050377;28;20461;-86
2024/02/04 13:32:39;;;;;;;;;;;;;;;;;;5050780;28;20723;-85
2024/02/04 13:35:07;;;;;;;;;;;;;;;;;;5041282;28;19994;-83
2024/02/04 13:37:34;;;;;;;;;;;;;;;;;;5051157;28;19936;-84
2024/02/04 13:40:01;;;;;;;;;;;;;;;;;;5047296;28;19928;-85
2024/02/04 13:42:28;;;;;;;;;;;;;;;;;;5047646;28;19929;-85
2024/02/04 13:44:55;;;;;;;;;;;;;;;;;;5047922;28;19943;-85
2024/02/04 13:47:22;;;;;;;;;;;;;;;;;;5044289;28;19964;-85
2024/02/04 13:49:49;;;;;;;;;;;;;;;;;;5043866;28;20292;-85
2024/02/04 13:52:16;;;;;;;;;;;;;;;;;;5047668;28;19991;-83
2024/02/04 13:54:43;;;;;;;;;;;;;;;;;;5049738;28;20429;-84
2024/02/04 13:57:10;;;;;;;;;;;;;;;;;;5048339;28;19968;-84
2024/02/04 13:59:37;;;;;;;;;;;;;;;;;;5049463;28;20495;-84
2024/02/04 14:02:05;;;;;;;;;;;;;;;;;;5048866;28;20409;-85
2024/02/04 14:04:32;;;;;;;;;;;;;;;;;;5058325;28;19939;-82
2024/02/04 14:06:59;;;;;;;;;;;;;;;;;;5048415;28;19928;-84
2024/02/04 14:09:26;;;;;;;;;;;;;;;;;;5048330;28;19933;-83
2024/02/04 14:11:54;;;;;;;;;;;;;;;;;;5050666;28;19929;-84
2024/02/04 14:14:21;;;;;;;;;;;;;;;;;;5048464;28;19929;-83
2024/02/04 14:16:48;;;;;;;;;;;;;;;;;;5049437;28;20011;-85
2024/02/04 14:19:15;;;;;;;;;;;;;;;;;;5050126;28;19933;-84
2024/02/04 14:21:42;;;;;;;;;;;;;;;;;;5047484;28;19987;-85
2024/02/04 14:24:09;;;;;;;;;;;;;;;;;;5045714;28;19928;-83
2024/02/04 14:26:36;;;;;;;;;;;;;;;;;;5047440;28;19968;-83
2024/02/04 14:29:03;;;;;;;;;;;;;;;;;;5051383;28;19929;-84
2024/02/04 14:31:30;;;;;;;;;;;;;;;;;;5049130;28;19932;-84
2024/02/04 14:33:57;;;;;;;;;;;;;;;;;;5046453;28;20033;-83
2024/02/04 14:36:24;;;;;;;;;;;;;;;;;;5048287;28;20468;-83
2024/02/04 14:38:51;;;;;;;;;;;;;;;;;;5044609;28;19936;-84
2024/02/04 14:41:18;;;;;;;;;;;;;;;;;;5050347;28;20392;-85
2024/02/04 14:43:46;;;;;;;;;;;;;;;;;;5037393;28;19965;-83
2024/02/04 14:46:13;;;;;;;;;;;;;;;;;;5043091;28;19928;-85
2024/02/04 14:48:40;;;;;;;;;;;;;;;;;;5044374;28;19971;-83
2024/02/04 14:51:07;;;;;;;;;;;;;;;;;;5045042;28;19928;-83
2024/02/04 14:53:34;;;;;;;;;;;;;;;;;;5047512;28;20375;-84
2024/02/04 14:56:01;;;;;;;;;;;;;;;;;;5049747;28;20295;-84
2024/02/04 14:58:28;;;;;;;;;;;;;;;;;;5044037;28;19944;-84
2024/02/04 15:00:55;;;;;;;;;;;;;;;;;;5045961;28;19936;-83
2024/02/04 15:03:22;;;;;;;;;;;;;;;;;;5040448;28;19982;-82
2024/02/04 15:05:49;;;;;;;;;;;;;;;;;;5047815;28;20732;-84
2024/02/04 15:08:16;;;;;;;;;;;;;;;;;;5045000;28;19941;-82
2024/02/04 15:10:43;;;;;;;;;;;;;;;;;;5048656;28;19929;-84
2024/02/04 15:13:11;;;;;;;;;;;;;;;;;;5062907;28;19982;-84
2024/02/04 15:15:38;;;;;;;;;;;;;;;;;;5051525;28;19929;-83
2024/02/04 15:18:05;;;;;;;;;;;;;;;;;;5047977;28;19929;-85
2024/02/04 15:20:32;;;;;;;;;;;;;;;;;;5045506;28;19929;-84
2024/02/04 15:23:00;;;;;;;;;;;;;;;;;;5044386;28;20008;-84
2024/02/04 15:25:27;;;;;;;;;;;;;;;;;;5046066;28;19928;-82
2024/02/04 15:27:55;;;;;;;;;;;;;;;;;;5043298;28;19928;-79
2024/02/04 15:30:22;;;;;;;;;;;;;;;;;;5047315;28;20366;-82
2024/02/04 15:32:51;;;;;;;;;;;;;;;;;;5049567;28;19971;-84
2024/02/04 15:35:18;;;;;;;;;;;;;;;;;;5049566;28;20481;-84
2024/02/04 15:37:46;;;;;;;;;;;;;;;;;;5048255;28;19986;-83
2024/02/04 15:40:13;;;;;;;;;;;;;;;;;;5046727;28;20029;-84
2024/02/04 15:42:40;;;;;;;;;;;;;;;;;;5043741;28;19936;-79
2024/02/04 15:45:08;;;;;;;;;;;;;;;;;;5042491;28;20019;-83
2024/02/04 15:47:35;;;;;;;;;;;;;;;;;;5045194;28;20410;-84
2024/02/04 15:50:03;;;;;;;;;;;;;;;;;;5042963;28;19932;-85
2024/02/04 15:52:32;;;;;;;;;;;;;;;;;;5043147;28;20340;-85
2024/02/04 15:54:59;;;;;;;;;;;;;;;;;;5042969;28;19995;-84
2024/02/04 15:57:26;;;;;;;;;;;;;;;;;;5042806;28;20002;-76
2024/02/04 15:59:53;;;;;;;;;;;;;;;;;;5041851;28;19976;-83
2024/02/04 16:02:20;;;;;;;;;;;;;;;;;;5040678;28;19929;-86
2024/02/04 16:04:50;;;;;;;;;;;;;;;;;;5042996;28;19983;-84
2024/02/04 16:07:18;;;;;;;;;;;;;;;;;;5043295;28;19933;-83
2024/02/04 16:09:48;;;;;;;;;;;;;;;;;;5043802;28;19928;-85
2024/02/04 16:12:15;;;;;;;;;;;;;;;;;;5046209;28;19928;-84
2024/02/04 16:14:44;;;;;;;;;;;;;;;;;;5041039;28;20027;-86
2024/02/04 16:17:11;;;;;;;;;;;;;;;;;;5042467;28;20327;-85
2024/02/04 16:19:38;;;;;;;;;;;;;;;;;;5039305;28;20400;-81
2024/02/04 16:22:05;;;;;;;;;;;;;;;;;;5040566;28;20037;-86
2024/02/04 16:24:32;;;;;;;;;;;;;;;;;;5042048;28;20368;-83
2024/02/04 16:26:59;;;;;;;;;;;;;;;;;;5046966;28;20025;-84
2024/02/04 16:29:27;;;;;;;;;;;;;;;;;;5045338;28;20046;-84
2024/02/04 16:31:55;;;;;;;;;;;;;;;;;;5041281;28;19929;-85
2024/02/04 16:34:21;;;;;;;;;;;;;;;;;;5039859;28;20730;-85
2024/02/04 16:36:48;;;;;;;;;;;;;;;;;;5045402;28;20027;-84
2024/02/04 16:39:15;;;;;;;;;;;;;;;;;;5043950;28;20826;-84
2024/02/04 16:41:42;;;;;;;;;;;;;;;;;;5041352;28;20039;-84
2024/02/04 16:44:13;;;;;;;;;;;;;;;;;;5044614;28;20039;-86